Auburndale, Massachusetts
Current Conditions -  °F | °C
As of 12:54 PM on Sunday 23 Nov 2014 (Local Time) from KBOS Reporting Station
Broken Clouds Broken Clouds  
Wind Chill: 58°   Ceiling: 7500
Heat Index: 58°   Visibility: 10mi
Dew Point: 38°   Wind: 12mph
Humidity: 47%   Direction: 270°W
Pressure: 30.11"   Gusts: 18mph
Location:  42.35°N, 70.95°W
Report Text: KBOS 231754Z 27010G16KT 10SM BKN075 14/03 A3011 RMK AO2 SLP194 T01440033 10144 20061 56011
Loading
Personal Weather Stations






























Interactive Weather Map New forecast layout! Learn more

10-Day Weather Forecast

Advertisements
Track Severe Weather on mobile